Bulk Argentina — 3FQA3 — position and weather

sailwx.info

Track history (hours):
 
Tides and Currents Weather Stations Pressure Air Temp Water Temp Dewpoint Dewpoint Depression Visibility Wind Speed Wind Dir Waves Ship Positions

Bulk Argentina

Last reported at 2017-Sep-21 21:53 UTC. Time now 2017-Oct-17 20:28 UTC.
Position N 35°33' E 139°59'.
Warning: this ship's position is 25 days out of date.

Length 190 m; draft 7.7 m.

Type: Cargo ship. MMSI: 371478000.

Date/timePositionNaut miles runAvg speedWind from/ knotsBaromVisibWave heightAir tempDewpointWater temp
2017-Sep-21 21:53N 35°33' E 139°59'1 3.9
2017-Sep-21 21:30N 35°32' E 139°58'0 0.1
2017-Sep-21 20:59N 35°32' E 139°58'1 1.2
2017-Sep-21 20:30N 35°32' E 139°57'3 6.6
2017-Sep-21 20:00N 35°30' E 139°54'612.4
2017-Sep-21 19:30N 35°26' E 139°48'611.5
2017-Sep-21 19:00N 35°21' E 139°45'510.7
2017-Sep-21 18:30N 35°16' E 139°47'510.7
2017-Sep-21 18:00N 35°10' E 139°46'5 9.2
2017-Sep-21 17:30N 35°06' E 139°44'5 9.1
2017-Sep-21 17:00N 35°02' E 139°42'611.2
2017-Sep-21 16:30N 34°56' E 139°42'611.2
2017-Sep-21 16:00N 34°51' E 139°39'711.1
2017-Sep-21 15:20N 34°44' E 139°39'235 7.4
2017-Sep-20 07:23N 34°01' E 134°58'511.7
2017-Sep-20 07:00N 34°06' E 134°58'612.8
2017-Sep-20 06:30N 34°12' E 134°58'1213.8
2017-Sep-20 05:38N 34°24' E 135°01'214.8
2017-Sep-20 05:30N 34°25' E 135°02'714.7
2017-Sep-20 05:00N 34°32' E 135°06'3 6.4
2017-Sep-20 04:30N 34°35' E 135°05'714.6
2017-Sep-20 04:00N 34°36' E 134°56'  
Track history (hours):
 
Tides and Currents Weather Stations Pressure Air Temp Water Temp Dewpoint Dewpoint Depression Visibility Wind Speed Wind Dir Waves Ship Positions

Bulk Argentina

Last reported at 2017-Sep-21 21:53 UTC. Time now 2017-Oct-17 20:28 UTC.
Position N 35°33' E 139°59'.
Warning: this ship's position is 25 days out of date.

Length 190 m; draft 7.7 m.

Type: Cargo ship. MMSI: 371478000.

Date/timePositionNaut miles runAvg speedWind from/ knotsBaromVisibWave heightAir tempDewpointWater temp
2017-Sep-21 21:53N 35°33' E 139°59'1 3.9
2017-Sep-21 21:30N 35°32' E 139°58'0 0.1
2017-Sep-21 20:59N 35°32' E 139°58'1 1.2
2017-Sep-21 20:30N 35°32' E 139°57'3 6.6
2017-Sep-21 20:00N 35°30' E 139°54'612.4
2017-Sep-21 19:30N 35°26' E 139°48'611.5
2017-Sep-21 19:00N 35°21' E 139°45'510.7
2017-Sep-21 18:30N 35°16' E 139°47'510.7
2017-Sep-21 18:00N 35°10' E 139°46'5 9.2
2017-Sep-21 17:30N 35°06' E 139°44'5 9.1
2017-Sep-21 17:00N 35°02' E 139°42'611.2
2017-Sep-21 16:30N 34°56' E 139°42'611.2
2017-Sep-21 16:00N 34°51' E 139°39'711.1
2017-Sep-21 15:20N 34°44' E 139°39'235 7.4
2017-Sep-20 07:23N 34°01' E 134°58'511.7
2017-Sep-20 07:00N 34°06' E 134°58'612.8
2017-Sep-20 06:30N 34°12' E 134°58'1213.8
2017-Sep-20 05:38N 34°24' E 135°01'214.8
2017-Sep-20 05:30N 34°25' E 135°02'714.7
2017-Sep-20 05:00N 34°32' E 135°06'3 6.4
2017-Sep-20 04:30N 34°35' E 135°05'714.6
2017-Sep-20 04:00N 34°36' E 134°56'  

Dump ship's entire track history